Saint John, Washington
Current Conditions -  °F | °C
As of 6:53 PM on Friday 28 Nov 2014 (Local Time) from KPUW Reporting Station
Light Rain Light Rain  
Wind Chill: 50°   Ceiling: 4900
Heat Index: 50°   Visibility: 10mi
Dew Point: 40°   Wind: 25mph
Humidity: 68%   Direction: 230°SW
Pressure: 29.37"   Gusts: 37mph
Location:  47.09°N, 117.58°W
Report Text: KPUW 290253Z AUTO 23022G32KT 10SM -RA BKN049 OVC060 10/04 A2937 RMK AO2 PK WND 23032/0247 RAE0154B20E30B48 SLP944 P0000 60016 T01000044 58018
Loading
Personal Weather Stations






























Interactive Weather Map New forecast layout! Learn more

10-Day Weather Forecast

Advertisements
Track Severe Weather on mobile